Wutai Shan, China
Current Conditions -  °F | °C
As of 9:00 PM on Friday 24 Oct 2014 (Local Time) from ZBSJ Reporting Station
Moderate Fog Moderate Fog  
Wind Chill: 54°   Ceiling: Unl
Heat Index: 54°   Visibility: 0.43mi
Dew Point: 54°   Wind: 2mph
Humidity: 100%   Direction: 270°W
Pressure: 29.85"   Gusts: NA
Location:  39.03°N, 113.53°E
Report Text: ZBSJ 241300Z 27001MPS 0700 R33/0800N FG NSC 12/12 Q1011 NOSIG
Loading
Personal Weather Stations






























Interactive Weather Map
Tropical Storm Tracking
New forecast layout! Learn more

10-Day Weather Forecast

Advertisements
Track Severe Weather on mobile